Time;durP1;ratioP1;P1;durP2;ratioP2;P2;SDS_P1;SDS_P2;PMS_P1;PMS_P2;Temp;Humidity;BMP_temperature;BMP_pressure;BME280_temperature;BME280_humidity;BME280_pressure;Samples;Min_cycle;Max_cycle;Signal;HPM_P1;HPM_P2
2022/06/12 19:44:51;;;;;;;13.45;5.18;;;15.30;99.90;;;;;;5151954;27;20731;-69
2022/06/12 19:47:17;;;;;;;11.93;4.85;;;15.10;99.90;;;;;;5151866;27;20045;-68
2022/06/12 19:49:42;;;;;;;12.35;4.90;;;15.10;99.90;;;;;;5133648;27;20046;-67
2022/06/12 19:52:08;;;;;;;12.55;5.18;;;15.10;99.90;;;;;;5151862;27;20500;-69
2022/06/12 19:54:34;;;;;;;10.45;4.97;;;15.10;99.90;;;;;;5151765;27;20648;-68
2022/06/12 19:57:00;;;;;;;12.85;5.18;;;15.00;99.90;;;;;;5149575;27;20498;-70
2022/06/12 19:59:26;;;;;;;18.45;5.85;;;14.90;99.90;;;;;;5133052;27;20125;-71
2022/06/12 20:01:53;;;;;;;11.90;5.80;;;14.90;99.90;;;;;;5151821;27;20050;-69
2022/06/12 20:09:50;;;;;;;13.32;5.07;;;14.80;99.90;;;;;;5133073;27;20047;-68
2022/06/12 20:12:16;;;;;;;21.80;5.85;;;14.80;99.90;;;;;;5151351;27;20504;-68
2022/06/12 20:14:42;;;;;;;13.65;5.43;;;14.80;99.90;;;;;;5132755;27;20114;-68
2022/06/12 20:17:08;;;;;;;10.60;5.22;;;14.80;99.90;;;;;;5151223;27;20046;-70
2022/06/12 20:19:33;;;;;;;16.45;5.90;;;14.80;99.90;;;;;;5150735;27;20474;-70
2022/06/12 20:21:59;;;;;;;15.52;5.82;;;14.80;99.90;;;;;;5131899;27;20480;-69
2022/06/12 20:24:26;;;;;;;12.38;5.50;;;14.80;99.90;;;;;;5131383;27;20078;-69
2022/06/12 20:26:52;;;;;;;15.90;5.63;;;14.80;99.90;;;;;;5148170;27;20065;-70
2022/06/12 20:29:17;;;;;;;14.90;5.68;;;14.70;99.90;;;;;;5131851;27;20114;-71
2022/06/12 20:31:43;;;;;;;15.73;5.50;;;14.70;99.90;;;;;;5131583;27;20443;-72
2022/06/12 20:34:09;;;;;;;14.38;5.85;;;14.70;99.90;;;;;;5114284;27;20034;-69
2022/06/12 20:36:36;;;;;;;11.00;4.82;;;14.60;99.90;;;;;;5149922;27;20099;-68
2022/06/12 20:39:03;;;;;;;15.40;5.60;;;14.60;99.90;;;;;;5150075;27;20031;-68
2022/06/12 20:41:29;;;;;;;11.77;5.28;;;14.50;99.90;;;;;;5150081;27;20410;-68
2022/06/12 20:43:56;;;;;;;11.35;5.22;;;14.50;99.90;;;;;;5127777;28;20047;-70
2022/06/12 20:46:22;;;;;;;11.38;5.47;;;14.40;99.90;;;;;;5129211;27;20043;-69
2022/06/12 20:48:48;;;;;;;15.85;5.70;;;14.40;99.90;;;;;;5127745;28;20425;-69
2022/06/12 20:51:14;;;;;;;14.02;5.25;;;14.40;99.90;;;;;;5128028;28;20080;-70
2022/06/12 20:53:41;;;;;;;18.52;5.93;;;14.40;99.90;;;;;;5108540;28;20044;-70
2022/06/12 20:56:08;;;;;;;14.48;5.50;;;14.30;99.90;;;;;;5093033;28;20047;-70
2022/06/12 20:58:35;;;;;;;14.35;6.10;;;14.30;99.90;;;;;;5094993;28;20109;-70
2022/06/12 21:01:01;;;;;;;10.80;5.95;;;14.30;99.90;;;;;;5093815;28;20130;-70
2022/06/12 21:03:27;;;;;;;13.23;5.60;;;14.20;99.90;;;;;;5110386;28;20101;-70
2022/06/12 21:05:53;;;;;;;12.52;5.95;;;14.10;99.90;;;;;;5094676;28;20046;-70
2022/06/12 21:08:20;;;;;;;10.88;5.78;;;14.10;99.90;;;;;;5094861;28;20036;-72
2022/06/12 21:10:47;;;;;;;18.70;5.95;;;14.00;99.90;;;;;;5077322;28;20498;-72
2022/06/12 21:13:16;;;;;;;16.92;5.60;;;13.90;99.90;;;;;;5111405;28;20051;-72
2022/06/12 21:15:43;;;;;;;13.77;6.00;;;13.90;99.90;;;;;;5094411;28;20048;-72
2022/06/12 21:18:10;;;;;;;17.20;6.45;;;13.80;99.90;;;;;;5095476;28;20043;-72
2022/06/12 21:20:39;;;;;;;12.82;6.13;;;13.80;99.90;;;;;;5095569;28;20044;-72
2022/06/12 21:23:08;;;;;;;10.90;5.53;;;13.60;99.90;;;;;;5095602;28;20082;-72
2022/06/12 21:25:41;;;;;;;17.33;6.40;;;13.60;99.90;;;;;;5108922;28;20173;-71
2022/06/12 21:28:08;;;;;;;12.30;5.93;;;13.60;99.90;;;;;;5094237;28;20032;-71
2022/06/12 21:30:36;;;;;;;13.55;5.97;;;13.50;99.90;;;;;;5093822;28;20137;-72
2022/06/12 21:33:02;;;;;;;13.68;5.75;;;13.40;99.90;;;;;;5095187;28;20044;-72
2022/06/12 21:35:28;;;;;;;18.80;6.38;;;13.40;99.90;;;;;;5111101;28;20044;-72
2022/06/12 21:37:55;;;;;;;11.30;5.55;;;13.40;99.90;;;;;;5110893;28;20128;-71
2022/06/12 21:40:21;;;;;;;15.80;6.20;;;13.30;99.90;;;;;;5095103;28;20123;-71
2022/06/12 21:42:46;;;;;;;22.50;6.60;;;13.30;99.90;;;;;;5096935;28;20051;-71
2022/06/12 21:45:14;;;;;;;17.42;5.60;;;13.30;99.90;;;;;;5080434;28;20040;-71
2022/06/12 21:47:40;;;;;;;15.02;6.07;;;13.20;99.90;;;;;;5115559;28;20070;-71
2022/06/12 21:50:07;;;;;;;10.38;5.80;;;13.10;99.90;;;;;;5131070;27;20090;-71
2022/06/12 21:55:18;;;;;;;15.68;7.05;;;12.90;99.90;;;;;;5115048;27;20046;-72
2022/06/12 21:57:44;;;;;;;14.80;6.55;;;12.80;99.90;;;;;;5135627;27;20546;-71
2022/06/12 22:00:15;;;;;;;17.05;5.38;;;12.70;99.90;;;;;;5117132;27;20046;-71
2022/06/12 22:02:40;;;;;;;16.27;6.20;;;12.70;99.90;;;;;;5100057;27;20047;-72
2022/06/12 22:05:07;;;;;;;15.27;6.63;;;12.70;99.90;;;;;;5117056;27;20046;-72
2022/06/12 22:07:33;;;;;;;18.50;7.20;;;12.60;99.90;;;;;;5134579;27;20027;-71
2022/06/12 22:09:59;;;;;;;13.10;5.65;;;12.60;99.90;;;;;;5116955;27;20486;-72
2022/06/12 22:12:25;;;;;;;12.60;6.45;;;12.70;99.90;;;;;;5117190;27;20039;-72
2022/06/12 22:14:51;;;;;;;14.90;6.25;;;12.60;99.90;;;;;;5135569;27;20123;-72
2022/06/12 22:17:18;;;;;;;15.95;6.25;;;12.70;99.90;;;;;;5135271;27;20485;-72
2022/06/12 22:19:45;;;;;;;13.73;5.75;;;12.70;99.90;;;;;;5135325;27;20038;-71
2022/06/12 22:22:11;;;;;;;15.32;6.28;;;12.70;99.90;;;;;;5100113;27;20061;-72
2022/06/12 22:24:38;;;;;;;13.10;5.38;;;12.70;99.90;;;;;;5116634;27;20043;-71
2022/06/12 22:27:08;;;;;;;13.98;6.85;;;12.70;99.90;;;;;;5114564;27;20043;-71
2022/06/12 22:29:35;;;;;;;14.48;6.63;;;12.70;99.90;;;;;;5116835;27;20433;-71
2022/06/12 22:32:01;;;;;;;13.88;6.32;;;12.80;99.90;;;;;;5135169;27;20378;-71
2022/06/12 22:34:28;;;;;;;14.98;6.97;;;12.80;99.90;;;;;;5134869;27;20482;-72
2022/06/12 22:36:54;;;;;;;14.90;6.97;;;12.80;99.90;;;;;;5134927;27;20035;-72
2022/06/12 22:39:20;;;;;;;18.35;7.10;;;12.80;99.90;;;;;;5134748;27;20386;-71
2022/06/12 22:41:46;;;;;;;14.95;6.95;;;12.80;99.90;;;;;;5116319;27;20563;-71
2022/06/12 22:44:12;;;;;;;13.23;6.80;;;12.90;99.90;;;;;;5134589;27;20045;-71
2022/06/12 22:46:38;;;;;;;13.27;6.80;;;12.90;99.90;;;;;;5099641;27;20374;-71
2022/06/12 22:49:05;;;;;;;18.92;7.85;;;12.90;99.90;;;;;;5116226;27;20046;-71
2022/06/12 22:51:32;;;;;;;18.25;6.47;;;13.00;99.90;;;;;;5116376;27;20051;-72
2022/06/12 22:53:58;;;;;;;12.50;6.25;;;13.00;99.90;;;;;;5134572;27;20043;-71
2022/06/12 22:56:24;;;;;;;14.80;7.32;;;13.00;99.90;;;;;;5132131;27;20043;-72
2022/06/12 22:58:50;;;;;;;15.05;7.30;;;13.10;99.90;;;;;;5134692;27;20050;-71
2022/06/12 23:01:18;;;;;;;16.30;7.03;;;13.10;99.90;;;;;;5116119;27;20039;-71
2022/06/12 23:03:44;;;;;;;12.43;6.13;;;13.20;99.90;;;;;;5116117;27;20043;-72
2022/06/12 23:06:10;;;;;;;13.80;6.90;;;13.20;99.90;;;;;;5134421;27;20462;-72
2022/06/12 23:08:36;;;;;;;18.17;5.68;;;13.20;99.90;;;;;;5134443;27;20038;-72
2022/06/12 23:11:02;;;;;;;17.85;5.65;;;13.30;99.90;;;;;;5115841;27;20049;-71
2022/06/12 23:13:28;;;;;;;18.52;7.68;;;13.40;99.90;;;;;;5134661;27;20045;-71
2022/06/12 23:15:54;;;;;;;16.98;6.50;;;13.40;99.90;;;;;;5134409;27;20646;-72
2022/06/12 23:18:20;;;;;;;13.07;6.00;;;13.40;99.90;;;;;;5134135;27;20127;-72
2022/06/12 23:20:46;;;;;;;14.32;6.55;;;13.40;99.90;;;;;;5115785;27;20035;-72
2022/06/12 23:23:27;;;;;;;13.25;6.75;;;13.50;99.90;;;;;;5134106;27;20042;-72
2022/06/12 23:26:00;;;;;;;16.17;6.95;;;13.50;99.90;;;;;;5131791;27;20043;-72
2022/06/12 23:28:27;;;;;;;16.73;7.40;;;13.60;99.90;;;;;;5099048;27;20074;-72
2022/06/12 23:30:54;;;;;;;17.60;7.43;;;13.50;99.90;;;;;;5134072;27;20027;-72
2022/06/12 23:33:22;;;;;;;17.92;7.45;;;13.60;99.90;;;;;;5134131;27;20066;-72
2022/06/12 23:35:51;;;;;;;13.40;6.78;;;13.60;99.90;;;;;;5115482;28;20039;-71
2022/06/12 23:38:18;;;;;;;15.95;7.13;;;13.60;99.90;;;;;;5115886;27;20041;-72
2022/06/12 23:40:44;;;;;;;16.67;6.82;;;13.60;99.90;;;;;;5134077;27;20032;-72
2022/06/12 23:43:11;;;;;;;12.80;7.05;;;13.60;99.90;;;;;;5115328;28;20197;-71
2022/06/12 23:45:38;;;;;;;13.05;6.47;;;13.50;99.90;;;;;;5115528;28;20043;-71
2022/06/12 23:48:06;;;;;;;15.07;6.97;;;13.50;99.90;;;;;;5133953;28;20031;-71
2022/06/12 23:50:33;;;;;;;17.20;8.20;;;13.50;99.90;;;;;;5133708;28;20058;-72
2022/06/12 23:52:58;;;;;;;20.15;8.52;;;13.50;99.90;;;;;;5134053;28;20412;-72
2022/06/12 23:55:24;;;;;;;18.20;8.52;;;13.50;99.90;;;;;;5096563;28;20092;-71
2022/06/12 23:57:50;;;;;;;14.82;7.95;;;13.60;99.90;;;;;;5115643;28;20506;-71
